createdAt,value
2023-07-28T00:00:40.639Z,6.95
2023-07-28T00:03:07.350Z,5.55
2023-07-28T00:05:34.138Z,5.38
2023-07-28T00:08:00.823Z,5.90
2023-07-28T00:10:27.531Z,6.38
2023-07-28T00:12:54.213Z,6.40
2023-07-28T00:15:20.906Z,5.13
2023-07-28T00:17:47.600Z,5.22
2023-07-28T00:20:14.273Z,6.47
2023-07-28T00:22:40.974Z,7.05
2023-07-28T00:25:08.095Z,5.10
2023-07-28T00:27:34.760Z,6.03
2023-07-28T00:30:01.396Z,6.30
2023-07-28T00:32:28.041Z,5.03
2023-07-28T00:34:54.785Z,5.60
2023-07-28T00:37:21.396Z,4.45
2023-07-28T00:39:48.128Z,8.95
2023-07-28T00:42:14.791Z,7.00
2023-07-28T00:44:41.466Z,4.97
2023-07-28T00:47:08.491Z,7.00
2023-07-28T00:49:35.490Z,4.53
2023-07-28T00:52:02.216Z,8.00
2023-07-28T00:54:28.919Z,7.53
2023-07-28T00:56:56.378Z,6.10
2023-07-28T00:59:23.350Z,5.82
2023-07-28T01:01:50.036Z,5.45
2023-07-28T01:04:16.884Z,11.05
2023-07-28T01:06:58.319Z,4.20
2023-07-28T01:09:30.342Z,3.75
2023-07-28T01:12:01.377Z,9.02
2023-07-28T01:14:28.088Z,4.88
2023-07-28T01:16:54.765Z,4.85
2023-07-28T01:19:23.557Z,3.65
2023-07-28T01:21:58.507Z,4.82
2023-07-28T01:25:06.830Z,4.60
2023-07-28T01:27:33.773Z,4.60
2023-07-28T01:30:01.043Z,4.35
2023-07-28T01:32:27.684Z,3.17
2023-07-28T01:34:54.349Z,3.20
2023-07-28T01:37:21.076Z,3.80
2023-07-28T01:39:47.694Z,4.05
2023-07-28T01:42:14.311Z,2.55
2023-07-28T01:44:40.943Z,3.75
2023-07-28T01:47:07.628Z,3.22
2023-07-28T01:49:34.233Z,3.97
2023-07-28T01:52:00.879Z,2.17
2023-07-28T01:54:27.517Z,3.33
2023-07-28T01:56:54.137Z,3.17
2023-07-28T01:59:21.593Z,3.88
2023-07-28T02:01:48.482Z,3.65
2023-07-28T02:04:16.580Z,2.72
2023-07-28T02:06:43.440Z,2.58
2023-07-28T02:09:10.304Z,3.85
2023-07-28T02:11:36.973Z,3.35
2023-07-28T02:14:03.602Z,2.60
2023-07-28T02:16:31.858Z,3.85
2023-07-28T02:18:58.559Z,3.90
2023-07-28T02:21:25.230Z,4.63
2023-07-28T02:23:51.869Z,3.85
2023-07-28T02:26:18.485Z,3.17
2023-07-28T02:28:45.150Z,4.13
2023-07-28T02:31:11.841Z,4.38
2023-07-28T02:33:38.537Z,3.35
2023-07-28T02:36:05.828Z,4.10
2023-07-28T02:38:32.509Z,4.20
2023-07-28T02:40:59.165Z,4.40
2023-07-28T02:43:25.863Z,3.72
2023-07-28T02:45:56.865Z,4.00
2023-07-28T02:48:23.776Z,3.63
2023-07-28T02:50:51.900Z,5.25
2023-07-28T02:53:18.979Z,3.72
2023-07-28T02:55:46.984Z,4.35
2023-07-28T02:58:14.306Z,3.45
2023-07-28T03:00:41.935Z,2.45
2023-07-28T03:03:11.645Z,2.58
2023-07-28T03:05:39.143Z,4.45
2023-07-28T03:08:06.705Z,2.08
2023-07-28T03:10:34.054Z,3.15
2023-07-28T03:13:00.766Z,2.75
2023-07-28T03:15:27.553Z,3.78
2023-07-28T03:17:55.653Z,2.05
2023-07-28T03:20:22.666Z,3.08
2023-07-28T03:22:49.299Z,1.65
2023-07-28T03:25:16.005Z,2.58
2023-07-28T03:27:42.765Z,2.25
2023-07-28T03:30:12.545Z,2.30
2023-07-28T03:32:39.439Z,5.60
2023-07-28T03:35:06.895Z,3.20
2023-07-28T03:37:34.107Z,2.50
2023-07-28T03:40:01.151Z,3.65
2023-07-28T03:42:28.102Z,5.47
2023-07-28T03:44:54.877Z,2.65
2023-07-28T03:47:21.802Z,3.15
2023-07-28T03:49:48.643Z,2.70
2023-07-28T03:52:15.307Z,3.42
2023-07-28T03:54:42.020Z,4.07
2023-07-28T03:57:10.402Z,4.93
2023-07-28T03:59:37.180Z,3.65
2023-07-28T04:02:04.178Z,5.28
2023-07-28T04:04:30.785Z,5.32
2023-07-28T04:06:57.478Z,3.65
2023-07-28T04:09:24.458Z,4.63
2023-07-28T04:11:51.092Z,5.18
2023-07-28T04:14:17.710Z,8.85
2023-07-28T04:16:44.356Z,5.90
2023-07-28T04:19:11.102Z,6.10
2023-07-28T04:21:41.839Z,6.75
2023-07-28T04:24:10.268Z,6.57
2023-07-28T04:26:37.635Z,6.60
2023-07-28T04:29:04.571Z,6.22
2023-07-28T04:31:31.550Z,6.38
2023-07-28T04:33:58.300Z,6.13
2023-07-28T04:36:24.947Z,8.50
2023-07-28T04:38:51.585Z,6.80
2023-07-28T04:41:18.319Z,7.18
2023-07-28T04:43:45.033Z,6.93
2023-07-28T04:46:11.717Z,7.25
2023-07-28T04:48:38.401Z,7.13
2023-07-28T04:51:05.027Z,6.07
2023-07-28T04:53:31.641Z,6.28
2023-07-28T04:55:58.302Z,7.05
2023-07-28T04:58:24.938Z,8.05
2023-07-28T05:00:51.644Z,6.45
2023-07-28T05:03:18.294Z,7.22
2023-07-28T05:05:45.608Z,7.22
2023-07-28T05:08:12.539Z,8.32
2023-07-28T05:10:39.202Z,7.70
2023-07-28T05:13:05.807Z,8.18
2023-07-28T05:15:32.500Z,7.72
2023-07-28T05:17:59.194Z,7.72
2023-07-28T05:20:25.831Z,6.07
2023-07-28T05:22:52.450Z,6.40
2023-07-28T05:25:19.103Z,6.65
2023-07-28T05:27:45.704Z,5.63
2023-07-28T05:30:12.350Z,6.85
2023-07-28T05:32:39.019Z,5.88
2023-07-28T05:35:06.340Z,6.13
2023-07-28T05:37:33.019Z,4.85
2023-07-28T05:39:59.718Z,5.13
2023-07-28T05:42:27.181Z,5.43
2023-07-28T05:44:55.427Z,5.90
2023-07-28T05:47:22.202Z,6.63
2023-07-28T05:49:48.886Z,5.32
2023-07-28T05:52:15.564Z,4.55
2023-07-28T05:54:42.222Z,7.00
2023-07-28T05:57:09.011Z,4.47
2023-07-28T05:59:35.678Z,6.00
2023-07-28T06:02:02.294Z,5.45
2023-07-28T06:04:28.942Z,5.03
2023-07-28T06:06:55.582Z,3.70
2023-07-28T06:09:22.214Z,4.07
2023-07-28T06:11:48.857Z,4.13
2023-07-28T06:14:15.589Z,6.00
2023-07-28T06:16:42.408Z,4.38
2023-07-28T06:19:09.517Z,4.15
2023-07-28T06:21:36.463Z,4.97
2023-07-28T06:24:03.560Z,4.75
2023-07-28T06:26:30.219Z,5.03
2023-07-28T06:28:56.865Z,5.03
2023-07-28T06:31:23.673Z,7.18
2023-07-28T06:33:50.399Z,6.90
2023-07-28T06:36:18.924Z,6.50
2023-07-28T06:38:49.207Z,6.70
2023-07-28T06:41:15.916Z,7.22
2023-07-28T06:43:42.611Z,6.25
2023-07-28T06:46:09.362Z,6.45
2023-07-28T06:48:36.043Z,6.32
2023-07-28T06:51:02.749Z,6.75
2023-07-28T06:53:29.457Z,5.88
2023-07-28T06:55:56.110Z,5.32
2023-07-28T06:58:22.755Z,5.28
2023-07-28T07:00:49.408Z,5.43
2023-07-28T07:03:16.014Z,5.97
2023-07-28T07:05:44.616Z,9.27
2023-07-28T07:08:11.278Z,5.63
2023-07-28T07:10:37.883Z,7.18
2023-07-28T07:13:04.544Z,6.90
2023-07-28T07:15:31.168Z,6.10
2023-07-28T07:17:57.847Z,5.47
2023-07-28T07:20:24.513Z,5.38
2023-07-28T07:22:51.196Z,4.15
2023-07-28T07:25:17.873Z,4.53
2023-07-28T07:27:44.527Z,3.92
2023-07-28T07:30:11.423Z,3.40
2023-07-28T07:32:38.217Z,4.38
2023-07-28T07:35:05.372Z,5.88
2023-07-28T07:37:33.105Z,4.78
2023-07-28T07:40:01.314Z,6.35
2023-07-28T07:42:29.482Z,7.53
2023-07-28T07:44:56.085Z,6.75
2023-07-28T07:47:22.781Z,7.47
2023-07-28T07:49:50.116Z,7.78
2023-07-28T07:52:16.743Z,6.20
2023-07-28T07:54:43.357Z,8.80
2023-07-28T07:57:10.048Z,8.02
2023-07-28T07:59:36.936Z,8.48
2023-07-28T08:02:04.308Z,7.53
2023-07-28T08:04:32.266Z,9.25
2023-07-28T08:06:59.318Z,9.88
2023-07-28T08:09:26.035Z,8.73
2023-07-28T08:11:53.973Z,8.90
2023-07-28T08:14:20.607Z,7.97
2023-07-28T08:16:47.731Z,8.85
2023-07-28T08:19:14.394Z,7.72
2023-07-28T08:21:41.036Z,8.13
2023-07-28T08:24:07.758Z,8.82
2023-07-28T08:26:34.495Z,8.00
2023-07-28T08:29:01.277Z,7.22
2023-07-28T08:31:28.048Z,7.68
2023-07-28T08:33:54.754Z,6.55
2023-07-28T08:36:21.443Z,6.35
2023-07-28T08:38:48.211Z,6.90
2023-07-28T08:41:15.270Z,8.93
2023-07-28T08:43:42.921Z,10.27
2023-07-28T08:46:09.659Z,9.38
2023-07-28T08:48:36.476Z,7.80
2023-07-28T08:51:05.418Z,7.95
2023-07-28T08:53:32.334Z,8.43
2023-07-28T08:55:59.009Z,8.25
2023-07-28T08:58:25.780Z,7.63
2023-07-28T09:00:53.532Z,8.00
2023-07-28T09:03:21.034Z,8.50
2023-07-28T09:05:48.082Z,8.23
2023-07-28T09:08:18.020Z,10.00
2023-07-28T09:10:50.051Z,9.60
2023-07-28T09:13:18.744Z,8.27
2023-07-28T09:15:46.633Z,7.88
2023-07-28T09:18:17.413Z,7.93
2023-07-28T09:20:44.968Z,6.50
2023-07-28T09:23:14.180Z,5.78
2023-07-28T09:25:40.893Z,9.38
2023-07-28T09:28:07.754Z,9.20
2023-07-28T09:30:50.606Z,8.38
2023-07-28T09:33:33.430Z,9.38
2023-07-28T09:36:09.302Z,8.00
2023-07-28T09:38:41.674Z,6.07
2023-07-28T09:41:11.330Z,7.50
2023-07-28T09:43:42.440Z,11.43
2023-07-28T09:46:10.750Z,5.13
2023-07-28T09:48:46.177Z,6.40
2023-07-28T09:51:18.259Z,7.75
2023-07-28T09:53:49.525Z,5.32
2023-07-28T09:56:17.661Z,4.47
2023-07-28T09:58:51.191Z,4.40
2023-07-28T10:01:18.534Z,6.00
2023-07-28T10:03:47.979Z,5.93
2023-07-28T10:06:15.211Z,3.55
2023-07-28T10:08:42.862Z,6.07
2023-07-28T10:11:09.650Z,5.40
2023-07-28T10:13:47.322Z,4.03
2023-07-28T10:16:17.401Z,3.72
2023-07-28T10:18:54.264Z,3.40
2023-07-28T10:21:21.151Z,4.75
2023-07-28T10:23:56.326Z,5.85
2023-07-28T10:26:37.181Z,2.67
2023-07-28T10:29:11.379Z,4.65
2023-07-28T10:31:38.453Z,4.13
2023-07-28T10:34:05.189Z,5.15
2023-07-28T10:36:31.792Z,2.85
2023-07-28T10:39:20.678Z,3.08
2023-07-28T10:42:13.605Z,3.67
2023-07-28T10:44:40.752Z,5.25
2023-07-28T10:47:12.387Z,3.03
2023-07-28T10:49:39.053Z,2.92
2023-07-28T10:52:05.775Z,1.20
2023-07-28T10:54:33.102Z,1.35
2023-07-28T10:57:04.436Z,1.42
2023-07-28T10:59:31.572Z,4.63
2023-07-28T11:01:58.228Z,1.73
2023-07-28T11:04:25.168Z,2.28
2023-07-28T11:06:52.613Z,1.77
2023-07-28T11:09:22.750Z,3.13
2023-07-28T11:11:50.440Z,3.38
2023-07-28T11:14:18.647Z,1.98
2023-07-28T11:16:45.994Z,1.20
2023-07-28T11:19:18.627Z,2.92
2023-07-28T11:21:45.555Z,1.77
2023-07-28T11:24:12.923Z,1.30
2023-07-28T11:26:40.641Z,1.85
2023-07-28T11:29:07.643Z,5.25
2023-07-28T11:31:35.128Z,2.63
2023-07-28T11:34:01.922Z,1.58
2023-07-28T11:36:30.793Z,2.50
2023-07-28T11:39:00.066Z,3.72
2023-07-28T11:41:27.872Z,1.88
2023-07-28T11:43:54.802Z,2.90
2023-07-28T11:46:39.897Z,1.58
2023-07-28T11:49:23.592Z,4.38
2023-07-28T11:51:55.170Z,2.17
2023-07-28T11:54:26.704Z,1.92
2023-07-28T11:56:58.585Z,1.83
2023-07-28T11:59:25.715Z,3.00
2023-07-28T12:07:14.967Z,2.17
2023-07-28T12:09:49.278Z,2.63
2023-07-28T12:14:50.593Z,3.22
2023-07-28T12:20:12.050Z,3.80
2023-07-28T12:22:40.675Z,2.45
2023-07-28T12:25:07.960Z,2.60
2023-07-28T12:27:35.183Z,3.40
2023-07-28T12:30:04.115Z,2.97
2023-07-28T12:35:14.567Z,2.00
2023-07-28T12:41:09.034Z,2.67
2023-07-28T12:43:05.667Z,2.97
2023-07-28T12:46:11.195Z,3.65
2023-07-28T12:48:21.029Z,3.95
2023-07-28T12:50:48.335Z,2.25
2023-07-28T12:53:18.635Z,1.63
2023-07-28T13:03:15.633Z,1.42
2023-07-28T13:05:44.579Z,1.90
2023-07-28T13:08:11.645Z,2.40
2023-07-28T13:13:13.361Z,4.45
2023-07-28T13:15:40.951Z,1.80
2023-07-28T13:18:07.845Z,2.22
2023-07-28T13:20:34.584Z,2.08
2023-07-28T13:23:01.186Z,4.05
2023-07-28T13:25:27.841Z,2.17
2023-07-28T13:27:54.850Z,1.75
2023-07-28T13:30:21.841Z,2.40
2023-07-28T13:32:48.752Z,1.42
2023-07-28T13:35:16.085Z,2.08
2023-07-28T13:37:42.834Z,1.90
2023-07-28T13:40:12.212Z,2.35
2023-07-28T13:42:40.157Z,2.08
2023-07-28T13:45:07.450Z,3.10
2023-07-28T13:47:34.126Z,3.97
2023-07-28T13:50:00.861Z,3.63
2023-07-28T13:52:28.053Z,2.15
2023-07-28T13:57:25.255Z,3.10
2023-07-28T13:59:51.893Z,2.53
2023-07-28T14:02:21.639Z,2.38
2023-07-28T14:04:48.362Z,2.15
2023-07-28T14:07:15.080Z,3.00
2023-07-28T14:09:41.794Z,3.08
2023-07-28T14:12:09.023Z,5.70
2023-07-28T14:14:35.769Z,5.10
2023-07-28T14:17:02.435Z,4.82
2023-07-28T14:19:29.096Z,4.82
2023-07-28T14:21:55.716Z,5.88
2023-07-28T14:24:22.346Z,3.45
2023-07-28T14:26:49.023Z,4.22
2023-07-28T14:29:15.639Z,3.53
2023-07-28T14:31:42.245Z,3.03
2023-07-28T14:34:08.894Z,3.92
2023-07-28T14:36:36.154Z,2.17
2023-07-28T14:39:03.614Z,3.40
2023-07-28T14:41:30.356Z,4.65
2023-07-28T14:43:56.996Z,3.75
2023-07-28T14:46:25.788Z,3.47
2023-07-28T14:48:53.189Z,5.07
2023-07-28T14:51:20.003Z,4.07
2023-07-28T14:53:47.840Z,3.40
2023-07-28T14:56:16.229Z,3.17
2023-07-28T14:58:42.930Z,3.15
2023-07-28T15:01:12.009Z,6.50
2023-07-28T15:03:39.400Z,4.10
2023-07-28T15:06:06.481Z,2.80
2023-07-28T15:08:33.310Z,3.65
2023-07-28T15:11:00.673Z,2.78
2023-07-28T15:13:27.522Z,5.70
2023-07-28T15:15:54.830Z,3.28
2023-07-28T15:18:21.554Z,6.07
2023-07-28T15:20:48.250Z,3.50
2023-07-28T15:23:14.860Z,2.83
2023-07-28T15:25:43.740Z,2.00
2023-07-28T15:28:12.138Z,2.45
2023-07-28T15:30:39.330Z,3.78
2023-07-28T15:33:06.040Z,3.92
2023-07-28T15:35:32.730Z,3.88
2023-07-28T15:37:59.416Z,3.70
2023-07-28T15:40:26.088Z,3.25
2023-07-28T15:42:52.748Z,3.25
2023-07-28T15:45:19.365Z,2.80
2023-07-28T15:47:46.027Z,6.43
2023-07-28T15:50:12.777Z,4.13
2023-07-28T15:52:39.997Z,3.30
2023-07-28T15:55:07.286Z,3.30
2023-07-28T15:57:33.974Z,5.07
2023-07-28T16:00:00.627Z,3.00
2023-07-28T16:02:27.484Z,5.82
2023-07-28T16:04:54.117Z,5.95
2023-07-28T16:07:20.786Z,3.58
2023-07-28T16:09:47.572Z,6.30
2023-07-28T16:12:14.198Z,3.67
2023-07-28T16:14:40.842Z,3.88
2023-07-28T16:17:07.511Z,3.58
2023-07-28T16:19:34.291Z,3.65
2023-07-28T16:22:01.376Z,3.95
2023-07-28T16:24:28.156Z,3.63
2023-07-28T16:26:54.902Z,5.88
2023-07-28T16:29:21.734Z,4.75
2023-07-28T16:31:49.429Z,8.20
2023-07-28T16:34:16.132Z,6.20
2023-07-28T16:36:42.885Z,4.25
2023-07-28T16:39:10.261Z,7.20
2023-07-28T16:41:37.333Z,5.38
2023-07-28T16:44:04.152Z,6.05
2023-07-28T16:46:30.825Z,4.68
2023-07-28T16:48:57.483Z,4.55
2023-07-28T16:51:24.134Z,4.22
2023-07-28T16:53:52.090Z,5.50
2023-07-28T16:56:18.728Z,4.93
2023-07-28T16:58:45.508Z,5.90
2023-07-28T17:01:12.167Z,6.07
2023-07-28T17:03:38.949Z,5.68
2023-07-28T17:06:06.720Z,6.60
2023-07-28T17:08:33.388Z,6.05
2023-07-28T17:11:00.037Z,5.90
2023-07-28T17:13:26.653Z,5.05
2023-07-28T17:15:53.326Z,4.43
2023-07-28T17:18:20.033Z,4.70
2023-07-28T17:20:47.295Z,5.70
2023-07-28T17:23:13.957Z,5.78
2023-07-28T17:25:40.780Z,5.32
2023-07-28T17:28:07.441Z,6.45
2023-07-28T17:30:34.178Z,4.80
2023-07-28T17:33:00.867Z,5.55
2023-07-28T17:35:27.622Z,6.10
2023-07-28T17:37:54.248Z,4.93
2023-07-28T17:40:21.032Z,6.72
2023-07-28T17:42:47.823Z,5.60
2023-07-28T17:45:14.678Z,5.03
2023-07-28T17:47:41.432Z,5.47
2023-07-28T17:50:09.732Z,4.63
2023-07-28T17:52:36.973Z,5.53
2023-07-28T17:55:04.070Z,7.28
2023-07-28T17:57:30.824Z,4.95
2023-07-28T17:59:57.865Z,4.88
2023-07-28T18:02:24.570Z,6.40
2023-07-28T18:04:51.207Z,5.10
2023-07-28T18:07:17.908Z,4.75
2023-07-28T18:09:44.604Z,4.65
2023-07-28T18:12:11.217Z,5.47
2023-07-28T18:14:37.902Z,4.50
2023-07-28T18:17:04.709Z,5.78
2023-07-28T18:19:31.383Z,4.35
2023-07-28T18:21:58.083Z,4.68
2023-07-28T18:24:24.823Z,3.05
2023-07-28T18:26:51.443Z,3.88
2023-07-28T18:29:18.049Z,4.72
2023-07-28T18:31:44.762Z,5.20
2023-07-28T18:34:11.389Z,4.30
2023-07-28T18:36:38.258Z,5.13
2023-07-28T18:39:06.858Z,6.65
2023-07-28T18:41:34.507Z,5.68
2023-07-28T18:44:01.512Z,6.63
2023-07-28T18:46:28.224Z,4.90
2023-07-28T18:48:55.045Z,5.85
2023-07-28T18:51:21.963Z,9.27
2023-07-28T18:53:48.736Z,6.28
2023-07-28T18:56:15.352Z,4.95
2023-07-28T18:58:42.737Z,6.75
2023-07-28T19:01:12.952Z,5.13
2023-07-28T19:03:40.439Z,4.85
2023-07-28T19:06:07.360Z,5.30
2023-07-28T19:08:34.060Z,5.53
2023-07-28T19:11:00.810Z,6.70
2023-07-28T19:13:27.605Z,6.70
2023-07-28T19:15:54.278Z,7.72
2023-07-28T19:18:21.414Z,6.05
2023-07-28T19:20:48.121Z,6.10
2023-07-28T19:23:14.907Z,6.20
2023-07-28T19:25:41.644Z,5.85
2023-07-28T19:28:08.588Z,6.78
2023-07-28T19:30:36.402Z,5.57
2023-07-28T19:33:03.163Z,5.80
2023-07-28T19:35:29.838Z,5.40
2023-07-28T19:37:56.478Z,4.90
2023-07-28T19:40:24.269Z,8.63
2023-07-28T19:42:54.320Z,6.07
2023-07-28T19:45:21.001Z,6.68
2023-07-28T19:47:47.777Z,6.68
2023-07-28T19:50:19.784Z,6.85
2023-07-28T19:52:54.737Z,7.53
2023-07-28T19:55:21.426Z,6.25
2023-07-28T19:57:48.045Z,7.80
2023-07-28T20:00:14.897Z,6.47
2023-07-28T20:02:42.484Z,6.43
2023-07-28T20:05:09.775Z,6.25
2023-07-28T20:07:36.469Z,6.10
2023-07-28T20:10:03.183Z,8.82
2023-07-28T20:12:30.854Z,5.63
2023-07-28T20:15:00.168Z,6.68
2023-07-28T20:17:26.828Z,14.30
2023-07-28T20:19:53.630Z,8.00
2023-07-28T20:22:20.472Z,10.48
2023-07-28T20:24:47.153Z,3.85
2023-07-28T20:27:13.881Z,5.68
2023-07-28T20:29:40.977Z,4.85
2023-07-28T20:32:08.731Z,6.32
2023-07-28T20:34:35.436Z,5.25
2023-07-28T20:37:02.075Z,4.55
2023-07-28T20:39:28.928Z,5.45
2023-07-28T20:41:55.587Z,6.75
2023-07-28T20:44:22.202Z,5.05
2023-07-28T20:46:49.224Z,3.53
2023-07-28T20:49:16.233Z,4.25
2023-07-28T20:51:42.814Z,4.22
2023-07-28T20:54:09.437Z,5.88
2023-07-28T20:56:36.324Z,4.03
2023-07-28T20:59:03.059Z,4.97
2023-07-28T21:01:29.704Z,5.55
2023-07-28T21:03:56.535Z,5.45
2023-07-28T21:06:23.180Z,3.55
2023-07-28T21:08:49.782Z,3.78
2023-07-28T21:11:16.428Z,3.53
2023-07-28T21:13:43.153Z,4.88
2023-07-28T21:16:10.012Z,3.33
2023-07-28T21:18:36.700Z,3.92
2023-07-28T21:21:03.987Z,4.28
2023-07-28T21:23:32.272Z,3.20
2023-07-28T21:26:01.661Z,2.72
2023-07-28T21:28:28.334Z,3.08
2023-07-28T21:30:55.089Z,4.35
2023-07-28T21:33:21.703Z,4.75
2023-07-28T21:35:48.476Z,4.90
2023-07-28T21:38:15.135Z,4.43
2023-07-28T21:40:42.877Z,3.65
2023-07-28T21:43:09.498Z,4.57
2023-07-28T21:45:36.122Z,5.72
2023-07-28T21:48:02.863Z,3.28
2023-07-28T21:50:29.725Z,3.13
2023-07-28T21:52:56.374Z,3.95
2023-07-28T21:55:23.008Z,3.03
2023-07-28T21:57:49.729Z,3.13
2023-07-28T22:00:16.668Z,3.47
2023-07-28T22:02:43.641Z,2.95
2023-07-28T22:05:12.457Z,3.22
2023-07-28T22:07:39.825Z,2.90
2023-07-28T22:10:07.066Z,3.70
2023-07-28T22:12:34.464Z,3.17
2023-07-28T22:15:01.171Z,2.75
2023-07-28T22:17:27.903Z,2.72
2023-07-28T22:19:54.608Z,2.90
2023-07-28T22:22:21.307Z,4.88
2023-07-28T22:24:48.024Z,2.85
2023-07-28T22:27:14.705Z,2.95
2023-07-28T22:29:41.452Z,2.80
2023-07-28T22:32:08.690Z,2.20
2023-07-28T22:34:35.373Z,3.65
2023-07-28T22:37:02.108Z,4.05
2023-07-28T22:39:29.408Z,4.03
2023-07-28T22:41:56.037Z,4.68
2023-07-28T22:44:22.659Z,5.55
2023-07-28T22:46:49.414Z,5.22
2023-07-28T22:49:16.061Z,5.00
2023-07-28T22:51:42.732Z,3.08
2023-07-28T22:54:09.421Z,2.97
2023-07-28T22:56:36.321Z,6.35
2023-07-28T22:59:03.570Z,3.55
2023-07-28T23:01:30.519Z,4.05
2023-07-28T23:03:57.479Z,3.92
2023-07-28T23:06:24.100Z,5.88
2023-07-28T23:08:50.728Z,7.07
2023-07-28T23:11:17.330Z,4.25
2023-07-28T23:13:44.002Z,4.30
2023-07-28T23:16:11.084Z,2.88
2023-07-28T23:18:37.726Z,3.58
2023-07-28T23:21:04.530Z,3.20
2023-07-28T23:23:31.190Z,5.60
2023-07-28T23:25:57.855Z,4.65
2023-07-28T23:28:24.688Z,4.90
2023-07-28T23:30:51.468Z,5.60
2023-07-28T23:33:18.139Z,3.63
2023-07-28T23:35:44.799Z,4.35
2023-07-28T23:38:11.429Z,7.70
2023-07-28T23:40:38.100Z,3.45
2023-07-28T23:43:05.146Z,5.10
2023-07-28T23:45:31.779Z,5.70
2023-07-28T23:47:58.527Z,5.90
2023-07-28T23:50:25.149Z,5.05
2023-07-28T23:52:51.799Z,5.50
2023-07-28T23:55:18.434Z,5.03
2023-07-28T23:57:45.070Z,5.47
